LCLK/LCA METAR and TAF weather

Enter ICAO airport designator
Station Type Date Time Source
LCLK METAR 2019/08/25 20:30 UTC NOAA

LCLK 252030Z 21004KT CAVOK 28/25 Q1008 NOSIG


Station Type Date Time Source
LCLK Decoded METAR 2019/08/25 20:30 UTC NOAA

Station name not available
Aug 25, 2019 - 04:30 PM EDT / 2019.08.25 2030 UTC
Wind: from the SSW (210 degrees) at 5 MPH (4 KT):0
Visibility: greater than 7 mile(s):0
Temperature: 82 F (28 C)
Dew Point: 77 F (25 C)
Relative Humidity: 83%
Pressure (altimeter): 29.77 in. Hg (1008 hPa)
ob: LCLK 252030Z 21004KT CAVOK 28/25 Q1008 NOSIG
cycle: 20

Station Type Date Time Source
LCLK TAF 2019/08/25 18:33 UTC NOAA

TAF TAF LCLK 251730Z 2518/2618 22010KT 9999 FEW025
BECMG 2520/2523 32006KT PROB30
TEMPO 2600/2605 5000 BR BKN006
BECMG 2609/2612 22017KT

Example: see airport list